sensor_id;sensor_type;location;lat;lon;timestamp;P1;durP1;ratioP1;P2;durP2;ratioP2
66751;SDS011;53663;42.676;23.238;2023-01-28T00:02:05;6.32;;;3.72;;
66751;SDS011;53663;42.676;23.238;2023-01-28T00:04:31;6.25;;;3.55;;
66751;SDS011;53663;42.676;23.238;2023-01-28T00:06:56;6.57;;;3.83;;
66751;SDS011;53663;42.676;23.238;2023-01-28T00:09:22;5.18;;;3.45;;
66751;SDS011;53663;42.676;23.238;2023-01-28T00:11:47;5.28;;;3.65;;
66751;SDS011;53663;42.676;23.238;2023-01-28T00:14:13;6.60;;;3.97;;
66751;SDS011;53663;42.676;23.238;2023-01-28T00:16:38;5.03;;;3.20;;
66751;SDS011;53663;42.676;23.238;2023-01-28T00:19:04;5.57;;;3.60;;
66751;SDS011;53663;42.676;23.238;2023-01-28T00:21:29;6.53;;;3.65;;
66751;SDS011;53663;42.676;23.238;2023-01-28T00:23:55;6.00;;;3.75;;
66751;SDS011;53663;42.676;23.238;2023-01-28T00:26:21;5.30;;;3.40;;
66751;SDS011;53663;42.676;23.238;2023-01-28T00:28:49;5.80;;;3.30;;
66751;SDS011;53663;42.676;23.238;2023-01-28T00:31:20;5.20;;;3.40;;
66751;SDS011;53663;42.676;23.238;2023-01-28T00:33:48;6.72;;;3.95;;
66751;SDS011;53663;42.676;23.238;2023-01-28T00:36:15;5.53;;;3.67;;
66751;SDS011;53663;42.676;23.238;2023-01-28T00:38:42;6.85;;;4.00;;
66751;SDS011;53663;42.676;23.238;2023-01-28T00:41:13;4.82;;;3.50;;
66751;SDS011;53663;42.676;23.238;2023-01-28T00:43:40;5.00;;;3.38;;
66751;SDS011;53663;42.676;23.238;2023-01-28T00:46:08;7.15;;;4.13;;
66751;SDS011;53663;42.676;23.238;2023-01-28T00:48:34;6.22;;;3.72;;
66751;SDS011;53663;42.676;23.238;2023-01-28T00:51:04;6.63;;;3.38;;
66751;SDS011;53663;42.676;23.238;2023-01-28T00:53:31;5.63;;;3.13;;
66751;SDS011;53663;42.676;23.238;2023-01-28T00:55:59;5.95;;;3.58;;
66751;SDS011;53663;42.676;23.238;2023-01-28T00:58:25;6.75;;;3.67;;
66751;SDS011;53663;42.676;23.238;2023-01-28T01:00:50;6.32;;;3.88;;
66751;SDS011;53663;42.676;23.238;2023-01-28T01:03:16;4.15;;;3.05;;
66751;SDS011;53663;42.676;23.238;2023-01-28T01:05:43;6.32;;;3.53;;
66751;SDS011;53663;42.676;23.238;2023-01-28T01:08:08;6.05;;;3.85;;
66751;SDS011;53663;42.676;23.238;2023-01-28T01:10:35;6.03;;;3.50;;
66751;SDS011;53663;42.676;23.238;2023-01-28T01:13:02;4.45;;;3.28;;
66751;SDS011;53663;42.676;23.238;2023-01-28T01:15:29;6.07;;;4.13;;
66751;SDS011;53663;42.676;23.238;2023-01-28T01:17:54;5.07;;;3.60;;
66751;SDS011;53663;42.676;23.238;2023-01-28T01:20:22;5.57;;;3.38;;
66751;SDS011;53663;42.676;23.238;2023-01-28T01:22:49;5.85;;;3.30;;
66751;SDS011;53663;42.676;23.238;2023-01-28T01:25:16;7.30;;;3.80;;
66751;SDS011;53663;42.676;23.238;2023-01-28T01:27:43;5.50;;;3.60;;
66751;SDS011;53663;42.676;23.238;2023-01-28T01:30:12;7.18;;;3.88;;
66751;SDS011;53663;42.676;23.238;2023-01-28T01:32:38;6.50;;;4.40;;
66751;SDS011;53663;42.676;23.238;2023-01-28T01:35:04;7.68;;;4.53;;
66751;SDS011;53663;42.676;23.238;2023-01-28T01:37:32;6.43;;;4.03;;
66751;SDS011;53663;42.676;23.238;2023-01-28T01:39:58;6.72;;;3.70;;
66751;SDS011;53663;42.676;23.238;2023-01-28T01:42:26;5.82;;;3.55;;
66751;SDS011;53663;42.676;23.238;2023-01-28T01:52:58;6.20;;;3.90;;
66751;SDS011;53663;42.676;23.238;2023-01-28T01:55:26;5.68;;;3.80;;
66751;SDS011;53663;42.676;23.238;2023-01-28T01:57:56;6.00;;;3.90;;
66751;SDS011;53663;42.676;23.238;2023-01-28T02:02:52;5.22;;;3.60;;
66751;SDS011;53663;42.676;23.238;2023-01-28T02:05:18;6.80;;;4.28;;
66751;SDS011;53663;42.676;23.238;2023-01-28T02:07:45;6.22;;;3.95;;
66751;SDS011;53663;42.676;23.238;2023-01-28T02:10:15;5.78;;;3.95;;
66751;SDS011;53663;42.676;23.238;2023-01-28T02:12:42;5.40;;;3.50;;
66751;SDS011;53663;42.676;23.238;2023-01-28T02:15:18;4.85;;;3.45;;
66751;SDS011;53663;42.676;23.238;2023-01-28T02:17:46;5.03;;;3.50;;
66751;SDS011;53663;42.676;23.238;2023-01-28T02:20:17;5.88;;;3.55;;
66751;SDS011;53663;42.676;23.238;2023-01-28T02:22:55;6.75;;;4.13;;
66751;SDS011;53663;42.676;23.238;2023-01-28T02:30:41;5.40;;;3.67;;
66751;SDS011;53663;42.676;23.238;2023-01-28T02:34:03;6.50;;;3.50;;
66751;SDS011;53663;42.676;23.238;2023-01-28T02:36:16;6.90;;;3.65;;
66751;SDS011;53663;42.676;23.238;2023-01-28T02:38:47;5.18;;;3.47;;
66751;SDS011;53663;42.676;23.238;2023-01-28T02:41:17;5.72;;;3.67;;
66751;SDS011;53663;42.676;23.238;2023-01-28T02:43:49;6.10;;;3.75;;
66751;SDS011;53663;42.676;23.238;2023-01-28T02:49:11;9.68;;;4.55;;
66751;SDS011;53663;42.676;23.238;2023-01-28T03:00:25;7.95;;;4.15;;
66751;SDS011;53663;42.676;23.238;2023-01-28T03:05:51;8.05;;;4.20;;
66751;SDS011;53663;42.676;23.238;2023-01-28T03:14:37;6.15;;;3.83;;
66751;SDS011;53663;42.676;23.238;2023-01-28T03:20:34;6.68;;;3.72;;
66751;SDS011;53663;42.676;23.238;2023-01-28T03:23:26;6.22;;;3.70;;
66751;SDS011;53663;42.676;23.238;2023-01-28T03:26:17;7.20;;;3.55;;
66751;SDS011;53663;42.676;23.238;2023-01-28T03:29:05;6.15;;;3.50;;
66751;SDS011;53663;42.676;23.238;2023-01-28T03:31:52;8.10;;;4.32;;
66751;SDS011;53663;42.676;23.238;2023-01-28T03:34:38;5.68;;;3.70;;
66751;SDS011;53663;42.676;23.238;2023-01-28T03:37:23;5.68;;;3.30;;
66751;SDS011;53663;42.676;23.238;2023-01-28T03:40:06;6.55;;;4.07;;
66751;SDS011;53663;42.676;23.238;2023-01-28T03:42:32;6.00;;;3.85;;
66751;SDS011;53663;42.676;23.238;2023-01-28T03:45:08;5.53;;;3.60;;
66751;SDS011;53663;42.676;23.238;2023-01-28T03:47:35;5.85;;;3.70;;
66751;SDS011;53663;42.676;23.238;2023-01-28T03:50:03;5.20;;;3.22;;
66751;SDS011;53663;42.676;23.238;2023-01-28T03:52:37;6.45;;;3.78;;
66751;SDS011;53663;42.676;23.238;2023-01-28T03:55:25;5.03;;;3.60;;
66751;SDS011;53663;42.676;23.238;2023-01-28T03:57:50;7.28;;;4.25;;
66751;SDS011;53663;42.676;23.238;2023-01-28T04:00:16;7.82;;;4.00;;
66751;SDS011;53663;42.676;23.238;2023-01-28T04:02:44;8.55;;;4.22;;
66751;SDS011;53663;42.676;23.238;2023-01-28T04:05:13;6.28;;;4.13;;
66751;SDS011;53663;42.676;23.238;2023-01-28T04:10:32;4.75;;;3.00;;
66751;SDS011;53663;42.676;23.238;2023-01-28T04:13:12;6.85;;;3.97;;
66751;SDS011;53663;42.676;23.238;2023-01-28T04:15:37;6.00;;;3.97;;
66751;SDS011;53663;42.676;23.238;2023-01-28T04:18:03;5.60;;;3.65;;
66751;SDS011;53663;42.676;23.238;2023-01-28T04:20:29;5.70;;;3.40;;
66751;SDS011;53663;42.676;23.238;2023-01-28T04:22:57;7.65;;;4.32;;
66751;SDS011;53663;42.676;23.238;2023-01-28T04:25:23;8.13;;;4.22;;
66751;SDS011;53663;42.676;23.238;2023-01-28T04:27:48;6.75;;;4.10;;
66751;SDS011;53663;42.676;23.238;2023-01-28T04:30:18;6.07;;;3.85;;
66751;SDS011;53663;42.676;23.238;2023-01-28T04:32:54;5.90;;;3.85;;
66751;SDS011;53663;42.676;23.238;2023-01-28T04:35:38;6.18;;;4.03;;
66751;SDS011;53663;42.676;23.238;2023-01-28T04:38:07;6.40;;;4.07;;
66751;SDS011;53663;42.676;23.238;2023-01-28T04:40:52;4.90;;;3.67;;
66751;SDS011;53663;42.676;23.238;2023-01-28T04:43:32;5.28;;;3.67;;
66751;SDS011;53663;42.676;23.238;2023-01-28T04:46:17;5.05;;;3.53;;
66751;SDS011;53663;42.676;23.238;2023-01-28T04:48:59;5.10;;;3.50;;
66751;SDS011;53663;42.676;23.238;2023-01-28T04:52:04;6.40;;;3.63;;
66751;SDS011;53663;42.676;23.238;2023-01-28T04:54:48;6.43;;;3.47;;
66751;SDS011;53663;42.676;23.238;2023-01-28T04:57:14;5.82;;;3.85;;
66751;SDS011;53663;42.676;23.238;2023-01-28T04:59:40;5.63;;;3.80;;
66751;SDS011;53663;42.676;23.238;2023-01-28T05:02:06;5.60;;;3.92;;
66751;SDS011;53663;42.676;23.238;2023-01-28T05:04:32;6.47;;;3.78;;
66751;SDS011;53663;42.676;23.238;2023-01-28T05:06:57;6.00;;;3.97;;
66751;SDS011;53663;42.676;23.238;2023-01-28T05:09:27;5.30;;;3.67;;
66751;SDS011;53663;42.676;23.238;2023-01-28T05:11:53;7.40;;;3.67;;
66751;SDS011;53663;42.676;23.238;2023-01-28T05:14:18;6.57;;;3.60;;
66751;SDS011;53663;42.676;23.238;2023-01-28T05:17:03;6.38;;;3.40;;
66751;SDS011;53663;42.676;23.238;2023-01-28T05:19:29;7.53;;;4.35;;
66751;SDS011;53663;42.676;23.238;2023-01-28T05:21:55;6.55;;;4.05;;
66751;SDS011;53663;42.676;23.238;2023-01-28T05:24:31;7.22;;;3.95;;
66751;SDS011;53663;42.676;23.238;2023-01-28T05:26:56;5.18;;;3.47;;
66751;SDS011;53663;42.676;23.238;2023-01-28T05:29:22;5.90;;;3.78;;
66751;SDS011;53663;42.676;23.238;2023-01-28T05:31:47;6.05;;;3.80;;
66751;SDS011;53663;42.676;23.238;2023-01-28T05:34:13;6.60;;;3.83;;
66751;SDS011;53663;42.676;23.238;2023-01-28T05:36:39;5.35;;;3.45;;
66751;SDS011;53663;42.676;23.238;2023-01-28T05:39:16;5.90;;;3.50;;
66751;SDS011;53663;42.676;23.238;2023-01-28T05:41:42;4.57;;;3.25;;
66751;SDS011;53663;42.676;23.238;2023-01-28T05:44:07;7.22;;;3.95;;
66751;SDS011;53663;42.676;23.238;2023-01-28T05:47:02;5.75;;;3.88;;
66751;SDS011;53663;42.676;23.238;2023-01-28T05:50:00;5.95;;;3.90;;
66751;SDS011;53663;42.676;23.238;2023-01-28T05:52:43;5.65;;;3.78;;
66751;SDS011;53663;42.676;23.238;2023-01-28T05:55:18;6.50;;;3.88;;
66751;SDS011;53663;42.676;23.238;2023-01-28T05:57:43;7.07;;;4.47;;
66751;SDS011;53663;42.676;23.238;2023-01-28T06:00:11;7.72;;;4.28;;
66751;SDS011;53663;42.676;23.238;2023-01-28T06:02:40;5.45;;;3.47;;
66751;SDS011;53663;42.676;23.238;2023-01-28T06:05:08;7.47;;;4.15;;
66751;SDS011;53663;42.676;23.238;2023-01-28T06:07:34;6.68;;;4.28;;
66751;SDS011;53663;42.676;23.238;2023-01-28T06:10:00;6.82;;;4.05;;
66751;SDS011;53663;42.676;23.238;2023-01-28T06:12:26;6.22;;;3.85;;
66751;SDS011;53663;42.676;23.238;2023-01-28T06:15:11;6.63;;;3.80;;
66751;SDS011;53663;42.676;23.238;2023-01-28T06:17:57;6.18;;;3.92;;
66751;SDS011;53663;42.676;23.238;2023-01-28T06:20:28;6.38;;;4.13;;
66751;SDS011;53663;42.676;23.238;2023-01-28T06:22:55;5.00;;;3.30;;
66751;SDS011;53663;42.676;23.238;2023-01-28T06:25:21;7.13;;;4.07;;
66751;SDS011;53663;42.676;23.238;2023-01-28T06:27:47;6.93;;;4.22;;
66751;SDS011;53663;42.676;23.238;2023-01-28T06:30:12;7.97;;;4.90;;
66751;SDS011;53663;42.676;23.238;2023-01-28T06:32:38;7.13;;;4.65;;
66751;SDS011;53663;42.676;23.238;2023-01-28T06:35:04;7.90;;;4.10;;
66751;SDS011;53663;42.676;23.238;2023-01-28T06:37:29;7.03;;;4.60;;
66751;SDS011;53663;42.676;23.238;2023-01-28T06:39:55;6.35;;;3.97;;
66751;SDS011;53663;42.676;23.238;2023-01-28T06:42:20;6.45;;;4.30;;
66751;SDS011;53663;42.676;23.238;2023-01-28T06:44:46;7.20;;;4.53;;
66751;SDS011;53663;42.676;23.238;2023-01-28T06:47:11;7.82;;;4.45;;
66751;SDS011;53663;42.676;23.238;2023-01-28T06:49:38;7.22;;;4.22;;
66751;SDS011;53663;42.676;23.238;2023-01-28T06:52:04;5.72;;;3.80;;
66751;SDS011;53663;42.676;23.238;2023-01-28T06:54:29;6.65;;;4.10;;
66751;SDS011;53663;42.676;23.238;2023-01-28T06:56:55;8.63;;;4.20;;
66751;SDS011;53663;42.676;23.238;2023-01-28T06:59:20;7.72;;;4.80;;
66751;SDS011;53663;42.676;23.238;2023-01-28T07:01:46;7.85;;;4.00;;
66751;SDS011;53663;42.676;23.238;2023-01-28T07:04:11;6.32;;;4.18;;
66751;SDS011;53663;42.676;23.238;2023-01-28T07:06:37;6.50;;;4.00;;
66751;SDS011;53663;42.676;23.238;2023-01-28T07:09:02;5.82;;;4.13;;
66751;SDS011;53663;42.676;23.238;2023-01-28T07:11:28;8.00;;;4.45;;
66751;SDS011;53663;42.676;23.238;2023-01-28T07:13:53;6.65;;;3.92;;
66751;SDS011;53663;42.676;23.238;2023-01-28T07:16:19;6.68;;;4.20;;
66751;SDS011;53663;42.676;23.238;2023-01-28T07:18:44;8.20;;;5.03;;
66751;SDS011;53663;42.676;23.238;2023-01-28T07:21:10;10.65;;;6.05;;
66751;SDS011;53663;42.676;23.238;2023-01-28T07:23:35;9.70;;;5.13;;
66751;SDS011;53663;42.676;23.238;2023-01-28T07:26:01;9.20;;;5.05;;
66751;SDS011;53663;42.676;23.238;2023-01-28T07:28:27;9.27;;;4.78;;
66751;SDS011;53663;42.676;23.238;2023-01-28T07:30:53;9.25;;;5.55;;
66751;SDS011;53663;42.676;23.238;2023-01-28T07:33:19;10.65;;;5.90;;
66751;SDS011;53663;42.676;23.238;2023-01-28T07:35:44;10.48;;;5.85;;
66751;SDS011;53663;42.676;23.238;2023-01-28T07:38:11;10.52;;;5.63;;
66751;SDS011;53663;42.676;23.238;2023-01-28T07:40:36;13.80;;;6.88;;
66751;SDS011;53663;42.676;23.238;2023-01-28T07:43:02;11.05;;;6.55;;
66751;SDS011;53663;42.676;23.238;2023-01-28T07:45:35;9.05;;;5.60;;
66751;SDS011;53663;42.676;23.238;2023-01-28T07:48:04;8.63;;;5.10;;
66751;SDS011;53663;42.676;23.238;2023-01-28T07:50:32;10.48;;;5.07;;
66751;SDS011;53663;42.676;23.238;2023-01-28T07:53:03;6.97;;;4.22;;
66751;SDS011;53663;42.676;23.238;2023-01-28T07:55:29;7.32;;;4.57;;
66751;SDS011;53663;42.676;23.238;2023-01-28T07:57:56;6.63;;;4.68;;
66751;SDS011;53663;42.676;23.238;2023-01-28T08:00:23;7.72;;;4.90;;
66751;SDS011;53663;42.676;23.238;2023-01-28T08:02:54;7.70;;;5.13;;
66751;SDS011;53663;42.676;23.238;2023-01-28T08:05:24;9.48;;;5.35;;
66751;SDS011;53663;42.676;23.238;2023-01-28T08:07:52;8.00;;;5.18;;
66751;SDS011;53663;42.676;23.238;2023-01-28T08:10:17;10.98;;;5.50;;
66751;SDS011;53663;42.676;23.238;2023-01-28T08:12:53;10.88;;;5.88;;
66751;SDS011;53663;42.676;23.238;2023-01-28T08:15:20;13.63;;;6.75;;
66751;SDS011;53663;42.676;23.238;2023-01-28T08:17:46;16.00;;;8.50;;
66751;SDS011;53663;42.676;23.238;2023-01-28T08:20:12;10.65;;;5.97;;
66751;SDS011;53663;42.676;23.238;2023-01-28T08:22:38;8.65;;;5.80;;
66751;SDS011;53663;42.676;23.238;2023-01-28T08:25:04;10.10;;;6.38;;
66751;SDS011;53663;42.676;23.238;2023-01-28T08:27:29;11.20;;;6.07;;
66751;SDS011;53663;42.676;23.238;2023-01-28T08:29:55;10.57;;;5.57;;
66751;SDS011;53663;42.676;23.238;2023-01-28T08:32:20;9.10;;;5.40;;
66751;SDS011;53663;42.676;23.238;2023-01-28T08:34:46;10.00;;;5.60;;
66751;SDS011;53663;42.676;23.238;2023-01-28T08:37:11;10.77;;;5.80;;
66751;SDS011;53663;42.676;23.238;2023-01-28T08:39:37;9.68;;;5.32;;
66751;SDS011;53663;42.676;23.238;2023-01-28T08:42:03;11.88;;;6.05;;
66751;SDS011;53663;42.676;23.238;2023-01-28T08:44:30;10.07;;;6.05;;
66751;SDS011;53663;42.676;23.238;2023-01-28T08:46:55;9.90;;;5.60;;
66751;SDS011;53663;42.676;23.238;2023-01-28T08:49:21;6.90;;;4.75;;
66751;SDS011;53663;42.676;23.238;2023-01-28T08:51:46;6.63;;;4.28;;
66751;SDS011;53663;42.676;23.238;2023-01-28T08:54:13;6.95;;;4.97;;
66751;SDS011;53663;42.676;23.238;2023-01-28T08:56:38;7.95;;;5.25;;
66751;SDS011;53663;42.676;23.238;2023-01-28T08:59:07;8.30;;;4.80;;
66751;SDS011;53663;42.676;23.238;2023-01-28T09:01:32;9.63;;;5.30;;
66751;SDS011;53663;42.676;23.238;2023-01-28T09:03:58;8.23;;;4.80;;
66751;SDS011;53663;42.676;23.238;2023-01-28T09:06:23;7.75;;;5.18;;
66751;SDS011;53663;42.676;23.238;2023-01-28T09:08:49;8.27;;;4.80;;
66751;SDS011;53663;42.676;23.238;2023-01-28T09:11:14;9.13;;;5.22;;
66751;SDS011;53663;42.676;23.238;2023-01-28T09:13:40;9.88;;;5.68;;
66751;SDS011;53663;42.676;23.238;2023-01-28T09:16:06;8.75;;;5.18;;
66751;SDS011;53663;42.676;23.238;2023-01-28T09:18:32;9.43;;;5.32;;
66751;SDS011;53663;42.676;23.238;2023-01-28T09:20:57;11.00;;;6.60;;
66751;SDS011;53663;42.676;23.238;2023-01-28T09:23:23;10.75;;;5.88;;
66751;SDS011;53663;42.676;23.238;2023-01-28T09:25:48;10.75;;;5.68;;
66751;SDS011;53663;42.676;23.238;2023-01-28T09:28:14;10.18;;;5.75;;
66751;SDS011;53663;42.676;23.238;2023-01-28T09:30:39;12.95;;;7.70;;
66751;SDS011;53663;42.676;23.238;2023-01-28T09:33:05;13.18;;;6.03;;
66751;SDS011;53663;42.676;23.238;2023-01-28T09:35:31;7.75;;;4.93;;
66751;SDS011;53663;42.676;23.238;2023-01-28T09:37:57;10.95;;;5.65;;
66751;SDS011;53663;42.676;23.238;2023-01-28T09:40:40;13.73;;;6.05;;
66751;SDS011;53663;42.676;23.238;2023-01-28T09:45:51;11.68;;;5.80;;
66751;SDS011;53663;42.676;23.238;2023-01-28T09:48:23;11.98;;;5.75;;
66751;SDS011;53663;42.676;23.238;2023-01-28T09:50:57;12.60;;;6.75;;
66751;SDS011;53663;42.676;23.238;2023-01-28T09:53:33;10.40;;;6.15;;
66751;SDS011;53663;42.676;23.238;2023-01-28T09:58:36;12.15;;;6.93;;
66751;SDS011;53663;42.676;23.238;2023-01-28T10:19:14;10.85;;;6.07;;
66751;SDS011;53663;42.676;23.238;2023-01-28T10:21:57;12.38;;;7.07;;
66751;SDS011;53663;42.676;23.238;2023-01-28T10:24:47;9.85;;;6.20;;
66751;SDS011;53663;42.676;23.238;2023-01-28T10:27:20;12.43;;;6.60;;
66751;SDS011;53663;42.676;23.238;2023-01-28T10:29:49;10.38;;;6.25;;
66751;SDS011;53663;42.676;23.238;2023-01-28T10:34:50;10.57;;;6.05;;
66751;SDS011;53663;42.676;23.238;2023-01-28T10:37:17;11.05;;;6.22;;
66751;SDS011;53663;42.676;23.238;2023-01-28T10:39:43;12.27;;;6.57;;
66751;SDS011;53663;42.676;23.238;2023-01-28T10:42:13;9.38;;;5.95;;
66751;SDS011;53663;42.676;23.238;2023-01-28T10:44:44;9.95;;;6.18;;
66751;SDS011;53663;42.676;23.238;2023-01-28T10:47:13;10.52;;;5.95;;
66751;SDS011;53663;42.676;23.238;2023-01-28T10:49:45;11.15;;;5.97;;
66751;SDS011;53663;42.676;23.238;2023-01-28T10:52:15;12.60;;;5.88;;
66751;SDS011;53663;42.676;23.238;2023-01-28T10:54:42;8.57;;;5.38;;
66751;SDS011;53663;42.676;23.238;2023-01-28T10:57:09;7.72;;;5.25;;
66751;SDS011;53663;42.676;23.238;2023-01-28T10:59:37;10.63;;;6.35;;
66751;SDS011;53663;42.676;23.238;2023-01-28T11:02:21;13.63;;;7.07;;
66751;SDS011;53663;42.676;23.238;2023-01-28T11:04:58;11.15;;;6.20;;
66751;SDS011;53663;42.676;23.238;2023-01-28T11:07:29;9.05;;;5.57;;
66751;SDS011;53663;42.676;23.238;2023-01-28T11:09:55;11.43;;;6.22;;
66751;SDS011;53663;42.676;23.238;2023-01-28T11:12:21;10.25;;;6.05;;
66751;SDS011;53663;42.676;23.238;2023-01-28T11:15:00;8.70;;;5.80;;
66751;SDS011;53663;42.676;23.238;2023-01-28T11:17:28;10.35;;;6.47;;
66751;SDS011;53663;42.676;23.238;2023-01-28T11:19:57;11.63;;;7.60;;
66751;SDS011;53663;42.676;23.238;2023-01-28T11:22:57;10.15;;;5.90;;
66751;SDS011;53663;42.676;23.238;2023-01-28T11:25:17;8.45;;;4.90;;
66751;SDS011;53663;42.676;23.238;2023-01-28T11:27:51;8.73;;;5.43;;
66751;SDS011;53663;42.676;23.238;2023-01-28T11:30:37;8.65;;;5.97;;
66751;SDS011;53663;42.676;23.238;2023-01-28T11:33:17;9.30;;;5.45;;
66751;SDS011;53663;42.676;23.238;2023-01-28T11:35:56;9.48;;;5.55;;
66751;SDS011;53663;42.676;23.238;2023-01-28T11:38:28;7.47;;;5.10;;
66751;SDS011;53663;42.676;23.238;2023-01-28T11:40:54;8.77;;;5.78;;
66751;SDS011;53663;42.676;23.238;2023-01-28T11:43:25;10.18;;;6.57;;
66751;SDS011;53663;42.676;23.238;2023-01-28T11:48:24;9.93;;;6.45;;
66751;SDS011;53663;42.676;23.238;2023-01-28T11:53:48;10.23;;;6.35;;
66751;SDS011;53663;42.676;23.238;2023-01-28T11:59:28;10.63;;;6.55;;
66751;SDS011;53663;42.676;23.238;2023-01-28T12:10:21;13.50;;;6.72;;
66751;SDS011;53663;42.676;23.238;2023-01-28T12:41:21;7.88;;;5.20;;
66751;SDS011;53663;42.676;23.238;2023-01-28T12:43:56;8.25;;;5.47;;
66751;SDS011;53663;42.676;23.238;2023-01-28T12:57:22;10.40;;;6.65;;
66751;SDS011;53663;42.676;23.238;2023-01-28T12:59:51;10.57;;;6.65;;
66751;SDS011;53663;42.676;23.238;2023-01-28T13:02:28;10.63;;;6.30;;
66751;SDS011;53663;42.676;23.238;2023-01-28T13:05:10;8.73;;;5.75;;
66751;SDS011;53663;42.676;23.238;2023-01-28T13:07:40;9.95;;;6.47;;
66751;SDS011;53663;42.676;23.238;2023-01-28T13:10:21;9.35;;;5.75;;
66751;SDS011;53663;42.676;23.238;2023-01-28T13:12:51;10.65;;;6.20;;
66751;SDS011;53663;42.676;23.238;2023-01-28T13:15:17;10.65;;;6.18;;
66751;SDS011;53663;42.676;23.238;2023-01-28T13:17:53;9.32;;;5.68;;
66751;SDS011;53663;42.676;23.238;2023-01-28T13:23:01;8.32;;;5.72;;
66751;SDS011;53663;42.676;23.238;2023-01-28T13:25:31;9.10;;;5.93;;
66751;SDS011;53663;42.676;23.238;2023-01-28T13:28:02;10.02;;;6.07;;
66751;SDS011;53663;42.676;23.238;2023-01-28T13:30:34;9.57;;;6.50;;
66751;SDS011;53663;42.676;23.238;2023-01-28T13:33:28;11.63;;;7.18;;
66751;SDS011;53663;42.676;23.238;2023-01-28T13:36:00;11.07;;;6.60;;
66751;SDS011;53663;42.676;23.238;2023-01-28T13:38:31;10.40;;;6.05;;
66751;SDS011;53663;42.676;23.238;2023-01-28T13:40:58;12.07;;;6.70;;
66751;SDS011;53663;42.676;23.238;2023-01-28T13:45:58;15.98;;;7.63;;
66751;SDS011;53663;42.676;23.238;2023-01-28T13:48:32;12.68;;;7.18;;
66751;SDS011;53663;42.676;23.238;2023-01-28T13:51:07;15.50;;;7.25;;
66751;SDS011;53663;42.676;23.238;2023-01-28T13:53:42;9.50;;;6.22;;
66751;SDS011;53663;42.676;23.238;2023-01-28T13:56:24;14.88;;;7.90;;
66751;SDS011;53663;42.676;23.238;2023-01-28T14:01:59;10.02;;;6.65;;
66751;SDS011;53663;42.676;23.238;2023-01-28T14:12:37;9.63;;;6.43;;
66751;SDS011;53663;42.676;23.238;2023-01-28T14:17:46;12.55;;;7.47;;
66751;SDS011;53663;42.676;23.238;2023-01-28T14:20:29;11.63;;;7.40;;
66751;SDS011;53663;42.676;23.238;2023-01-28T14:23:02;16.77;;;8.23;;
66751;SDS011;53663;42.676;23.238;2023-01-28T14:28:19;12.98;;;7.10;;
66751;SDS011;53663;42.676;23.238;2023-01-28T14:30:57;10.95;;;6.63;;
66751;SDS011;53663;42.676;23.238;2023-01-28T14:33:30;13.02;;;7.70;;
66751;SDS011;53663;42.676;23.238;2023-01-28T14:35:56;11.90;;;7.50;;
66751;SDS011;53663;42.676;23.238;2023-01-28T14:38:22;12.52;;;7.28;;
66751;SDS011;53663;42.676;23.238;2023-01-28T14:40:51;12.70;;;7.57;;
66751;SDS011;53663;42.676;23.238;2023-01-28T14:43:22;17.35;;;9.15;;
66751;SDS011;53663;42.676;23.238;2023-01-28T14:51:10;11.65;;;6.43;;
66751;SDS011;53663;42.676;23.238;2023-01-28T14:56:48;18.38;;;8.45;;
66751;SDS011;53663;42.676;23.238;2023-01-28T15:02:11;25.85;;;10.68;;
66751;SDS011;53663;42.676;23.238;2023-01-28T15:04:45;13.70;;;8.20;;
66751;SDS011;53663;42.676;23.238;2023-01-28T15:07:14;15.63;;;7.75;;
66751;SDS011;53663;42.676;23.238;2023-01-28T15:09:40;14.57;;;8.30;;
66751;SDS011;53663;42.676;23.238;2023-01-28T15:12:06;11.40;;;7.13;;
66751;SDS011;53663;42.676;23.238;2023-01-28T15:14:32;9.88;;;7.43;;
66751;SDS011;53663;42.676;23.238;2023-01-28T15:16:58;11.93;;;6.80;;
66751;SDS011;53663;42.676;23.238;2023-01-28T15:19:32;9.77;;;6.30;;
66751;SDS011;53663;42.676;23.238;2023-01-28T15:22:01;13.32;;;7.55;;
66751;SDS011;53663;42.676;23.238;2023-01-28T15:24:28;13.95;;;8.13;;
66751;SDS011;53663;42.676;23.238;2023-01-28T15:26:56;14.23;;;7.65;;
66751;SDS011;53663;42.676;23.238;2023-01-28T15:29:22;11.45;;;7.30;;
66751;SDS011;53663;42.676;23.238;2023-01-28T15:31:49;13.73;;;7.63;;
66751;SDS011;53663;42.676;23.238;2023-01-28T15:34:19;9.50;;;6.25;;
66751;SDS011;53663;42.676;23.238;2023-01-28T15:36:46;13.80;;;7.03;;
66751;SDS011;53663;42.676;23.238;2023-01-28T15:39:14;15.23;;;7.50;;
66751;SDS011;53663;42.676;23.238;2023-01-28T15:41:46;11.23;;;7.03;;
66751;SDS011;53663;42.676;23.238;2023-01-28T15:44:20;11.27;;;6.72;;
66751;SDS011;53663;42.676;23.238;2023-01-28T15:46:46;12.85;;;7.50;;
66751;SDS011;53663;42.676;23.238;2023-01-28T15:49:13;12.10;;;7.68;;
66751;SDS011;53663;42.676;23.238;2023-01-28T15:51:40;10.93;;;6.53;;
66751;SDS011;53663;42.676;23.238;2023-01-28T15:54:12;8.90;;;5.68;;
66751;SDS011;53663;42.676;23.238;2023-01-28T15:56:37;13.35;;;6.68;;
66751;SDS011;53663;42.676;23.238;2023-01-28T15:59:16;9.68;;;6.18;;
66751;SDS011;53663;42.676;23.238;2023-01-28T16:01:41;11.63;;;7.22;;
66751;SDS011;53663;42.676;23.238;2023-01-28T16:04:20;13.00;;;7.28;;
66751;SDS011;53663;42.676;23.238;2023-01-28T16:06:50;12.18;;;7.50;;
66751;SDS011;53663;42.676;23.238;2023-01-28T16:09:22;11.88;;;7.18;;
66751;SDS011;53663;42.676;23.238;2023-01-28T16:11:50;13.27;;;7.90;;
66751;SDS011;53663;42.676;23.238;2023-01-28T16:14:26;12.27;;;6.90;;
66751;SDS011;53663;42.676;23.238;2023-01-28T16:16:54;12.30;;;6.65;;
66751;SDS011;53663;42.676;23.238;2023-01-28T16:22:04;12.23;;;7.03;;
66751;SDS011;53663;42.676;23.238;2023-01-28T16:24:32;10.27;;;6.30;;
66751;SDS011;53663;42.676;23.238;2023-01-28T16:27:02;13.20;;;6.65;;
66751;SDS011;53663;42.676;23.238;2023-01-28T16:29:43;13.02;;;7.88;;
66751;SDS011;53663;42.676;23.238;2023-01-28T16:32:25;14.07;;;7.28;;
66751;SDS011;53663;42.676;23.238;2023-01-28T16:34:54;14.48;;;7.10;;
66751;SDS011;53663;42.676;23.238;2023-01-28T16:37:20;10.07;;;6.72;;
66751;SDS011;53663;42.676;23.238;2023-01-28T16:39:47;10.57;;;5.97;;
66751;SDS011;53663;42.676;23.238;2023-01-28T16:42:13;14.63;;;6.30;;
66751;SDS011;53663;42.676;23.238;2023-01-28T16:44:38;12.50;;;6.47;;
66751;SDS011;53663;42.676;23.238;2023-01-28T16:47:04;16.85;;;6.93;;
66751;SDS011;53663;42.676;23.238;2023-01-28T16:49:30;12.73;;;7.47;;
66751;SDS011;53663;42.676;23.238;2023-01-28T16:51:56;17.73;;;8.30;;
66751;SDS011;53663;42.676;23.238;2023-01-28T16:54:22;12.00;;;6.63;;
66751;SDS011;53663;42.676;23.238;2023-01-28T16:56:47;14.63;;;7.55;;
66751;SDS011;53663;42.676;23.238;2023-01-28T16:59:14;11.80;;;6.85;;
66751;SDS011;53663;42.676;23.238;2023-01-28T17:01:40;10.68;;;5.97;;
66751;SDS011;53663;42.676;23.238;2023-01-28T17:04:06;11.25;;;5.88;;
66751;SDS011;53663;42.676;23.238;2023-01-28T17:06:35;10.88;;;6.55;;
66751;SDS011;53663;42.676;23.238;2023-01-28T17:09:03;14.60;;;7.55;;
66751;SDS011;53663;42.676;23.238;2023-01-28T17:11:29;14.20;;;7.65;;
66751;SDS011;53663;42.676;23.238;2023-01-28T17:13:56;16.40;;;7.40;;
66751;SDS011;53663;42.676;23.238;2023-01-28T17:16:21;11.18;;;5.95;;
66751;SDS011;53663;42.676;23.238;2023-01-28T17:18:50;10.05;;;6.15;;
66751;SDS011;53663;42.676;23.238;2023-01-28T17:21:16;9.77;;;6.30;;
66751;SDS011;53663;42.676;23.238;2023-01-28T17:23:42;8.85;;;5.50;;
66751;SDS011;53663;42.676;23.238;2023-01-28T17:26:08;8.98;;;5.60;;